createdAt,value
2022-10-01T00:00:13.391Z,100179.66
2022-10-01T00:05:21.315Z,100135.06
2022-10-01T00:07:48.833Z,100129.59
2022-10-01T00:10:15.997Z,100123.97
2022-10-01T00:12:47.858Z,100094.28
2022-10-01T00:15:19.405Z,100137.69
2022-10-01T00:17:45.879Z,100118.63
2022-10-01T00:20:14.591Z,100092.03
2022-10-01T00:22:41.508Z,100087.41
2022-10-01T00:25:08.309Z,100107.34
2022-10-01T00:27:35.861Z,100091.84
2022-10-01T00:30:13.112Z,100087.25
2022-10-01T00:38:05.475Z,100100.47
2022-10-01T00:40:33.838Z,100096.53
2022-10-01T00:43:00.323Z,100098.00
2022-10-01T00:48:07.899Z,100076.47
2022-10-01T00:50:35.147Z,100075.25
2022-10-01T00:53:05.209Z,100051.75
2022-10-01T00:55:36.230Z,100027.03
2022-10-01T00:58:06.098Z,100036.44
2022-10-01T01:00:32.803Z,100030.81
2022-10-01T01:02:59.273Z,99991.63
2022-10-01T01:08:06.345Z,100047.16
2022-10-01T01:11:03.929Z,100034.59
2022-10-01T01:13:38.207Z,99981.97
2022-10-01T01:16:14.183Z,100030.81
2022-10-01T01:19:01.178Z,100024.78
2022-10-01T01:24:49.323Z,99992.19
2022-10-01T01:27:41.111Z,100000.16
2022-10-01T01:30:13.877Z,100006.03
2022-10-01T01:32:57.300Z,99967.72
2022-10-01T01:35:33.063Z,99992.72
2022-10-01T01:38:03.605Z,99974.47
2022-10-01T01:43:20.521Z,99978.06
2022-10-01T01:45:49.688Z,99998.78
2022-10-01T01:48:16.326Z,99991.25
2022-10-01T01:50:49.855Z,99984.13
2022-10-01T01:53:16.497Z,99991.06
2022-10-01T01:58:28.455Z,99999.03
2022-10-01T02:01:03.225Z,99981.66
2022-10-01T02:03:30.059Z,100003.88
2022-10-01T02:06:06.184Z,99980.81
2022-10-01T02:08:42.652Z,100000.56
2022-10-01T02:17:21.807Z,99977.56
2022-10-01T02:20:03.841Z,99985.19
2022-10-01T02:22:36.050Z,99991.06
2022-10-01T02:25:04.500Z,99982.50
2022-10-01T02:27:36.140Z,99994.66
2022-10-01T02:30:19.625Z,99985.66
2022-10-01T02:32:47.621Z,99982.13
2022-10-01T02:35:20.919Z,99999.75
2022-10-01T02:37:51.276Z,99992.84
2022-10-01T02:40:21.008Z,99987.22
2022-10-01T02:45:32.516Z,99987.03
2022-10-01T02:48:04.383Z,99982.84
2022-10-01T02:53:22.386Z,99992.53
2022-10-01T02:55:57.943Z,99983.94
2022-10-01T02:58:24.450Z,99986.03
2022-10-01T03:03:40.269Z,99996.34
2022-10-01T03:08:47.154Z,99975.53
2022-10-01T03:11:22.602Z,99996.75
2022-10-01T03:16:29.996Z,99978.50
2022-10-01T03:18:56.490Z,99979.34
2022-10-01T03:21:23.052Z,99959.56
2022-10-01T03:23:49.510Z,99977.00
2022-10-01T03:26:15.980Z,99991.94
2022-10-01T03:28:42.499Z,99983.34
2022-10-01T03:33:51.317Z,99988.56
2022-10-01T03:38:58.540Z,99984.38
2022-10-01T03:41:25.255Z,100006.66
2022-10-01T03:43:55.069Z,99996.78
2022-10-01T03:46:23.605Z,99996.38
2022-10-01T03:48:50.619Z,99995.94
2022-10-01T03:51:19.895Z,100004.16
2022-10-01T03:53:47.926Z,100013.38
2022-10-01T03:58:56.008Z,100009.38
2022-10-01T04:01:22.621Z,100018.41
2022-10-01T04:03:50.301Z,100028.72
2022-10-01T04:06:20.936Z,100028.72
2022-10-01T04:08:47.608Z,100036.06
2022-10-01T04:11:14.429Z,100023.03
2022-10-01T04:16:07.121Z,100040.06
2022-10-01T04:18:34.558Z,100035.88
2022-10-01T04:21:01.305Z,100040.69
2022-10-01T04:23:35.402Z,100052.84
2022-10-01T04:26:05.190Z,100054.13
2022-10-01T04:28:32.143Z,100053.72
2022-10-01T04:33:57.679Z,100066.34
2022-10-01T04:39:05.564Z,100066.16
2022-10-01T04:44:12.810Z,100066.97
2022-10-01T04:46:39.923Z,100081.72
2022-10-01T04:49:06.409Z,100073.06
2022-10-01T04:54:25.664Z,100081.69
2022-10-01T04:59:33.575Z,100093.06
2022-10-01T05:02:00.119Z,100102.31
2022-10-01T05:04:27.512Z,100105.66
2022-10-01T05:06:54.016Z,100107.78
2022-10-01T05:09:24.272Z,100122.06
2022-10-01T05:11:52.040Z,100122.94
2022-10-01T05:17:09.088Z,100127.34
2022-10-01T05:19:35.582Z,100132.19
2022-10-01T05:22:02.126Z,100134.50
2022-10-01T05:24:29.256Z,100135.53
2022-10-01T05:26:55.743Z,100138.50
2022-10-01T05:29:22.278Z,100139.72
2022-10-01T05:31:49.576Z,100138.50
2022-10-01T05:34:16.192Z,100139.72
2022-10-01T05:36:42.718Z,100145.19
2022-10-01T05:39:09.732Z,100141.63
2022-10-01T05:44:22.584Z,100150.25
2022-10-01T05:46:49.342Z,100146.03
2022-10-01T05:51:51.798Z,100161.19
2022-10-01T05:56:58.673Z,100168.56
2022-10-01T05:59:28.430Z,100166.66
2022-10-01T06:01:57.719Z,100174.44
2022-10-01T06:04:24.436Z,100165.81
2022-10-01T06:06:50.994Z,100177.19
2022-10-01T06:09:17.677Z,100182.25
2022-10-01T06:11:44.142Z,100183.31
2022-10-01T06:14:10.797Z,100179.72
2022-10-01T06:22:15.086Z,100187.09
2022-10-01T06:24:41.776Z,100183.91
2022-10-01T06:27:08.314Z,100194.44
2022-10-01T06:29:34.786Z,100181.41
2022-10-01T06:34:42.075Z,100190.66
2022-10-01T06:37:12.403Z,100194.84
2022-10-01T06:39:38.944Z,100202.88
2022-10-01T06:42:05.595Z,100197.41
2022-10-01T06:44:40.061Z,100210.00
2022-10-01T06:49:47.954Z,100216.97
2022-10-01T06:55:16.611Z,100220.16
2022-10-01T06:57:43.838Z,100220.97
2022-10-01T07:00:11.403Z,100214.44
2022-10-01T07:02:38.372Z,100223.06
2022-10-01T07:05:13.466Z,100223.50
2022-10-01T07:07:40.009Z,100229.81
2022-10-01T07:10:09.290Z,100227.03
2022-10-01T07:12:36.714Z,100230.78
2022-10-01T07:15:05.801Z,100232.47
2022-10-01T07:20:25.609Z,100237.59
2022-10-01T07:25:51.117Z,100233.81
2022-10-01T07:28:20.251Z,100239.34
2022-10-01T07:31:12.048Z,100236.94
2022-10-01T07:33:39.149Z,100233.94
2022-10-01T07:36:08.797Z,100233.31
2022-10-01T07:38:47.998Z,100235.09
2022-10-01T07:41:16.848Z,100232.41
2022-10-01T07:43:43.864Z,100238.25
2022-10-01T07:46:10.629Z,100244.13
2022-10-01T07:48:37.210Z,100245.53
2022-10-01T07:51:03.892Z,100247.66
2022-10-01T07:53:31.007Z,100250.56
2022-10-01T07:58:43.366Z,100251.94
2022-10-01T08:01:10.077Z,100256.00
2022-10-01T08:06:24.570Z,100254.34
2022-10-01T08:08:52.188Z,100258.94
2022-10-01T08:11:18.722Z,100261.28
2022-10-01T08:13:48.801Z,100269.56
2022-10-01T08:16:15.329Z,100271.41
2022-10-01T08:18:41.850Z,100273.53
2022-10-01T08:21:09.019Z,100278.00
2022-10-01T08:23:36.339Z,100288.88
2022-10-01T08:26:07.842Z,100277.59
2022-10-01T08:34:04.009Z,100298.09
2022-10-01T08:36:30.851Z,100304.72
2022-10-01T08:38:57.587Z,100306.69
2022-10-01T08:41:39.591Z,100309.91
2022-10-01T08:44:07.497Z,100310.72
2022-10-01T08:46:36.432Z,100322.16
2022-10-01T08:49:16.217Z,100314.38
2022-10-01T08:52:10.834Z,100312.47
2022-10-01T08:54:41.381Z,100323.44
2022-10-01T08:57:30.290Z,100333.31
2022-10-01T08:59:59.514Z,100326.88
2022-10-01T09:02:29.169Z,100331.88
2022-10-01T09:05:01.516Z,100343.31
2022-10-01T09:08:15.204Z,100346.06
2022-10-01T09:10:46.599Z,100355.09
2022-10-01T09:13:16.027Z,100363.34
2022-10-01T09:16:01.902Z,100363.03
2022-10-01T09:18:40.320Z,100372.94
2022-10-01T09:21:30.242Z,100383.06
2022-10-01T09:26:48.908Z,100385.41
2022-10-01T09:35:48.498Z,100405.94
2022-10-01T09:38:36.897Z,100404.75
2022-10-01T09:41:04.913Z,100414.44
2022-10-01T09:43:36.929Z,100417.22
2022-10-01T09:46:14.726Z,100417.81
2022-10-01T09:48:44.740Z,100429.75
2022-10-01T09:51:15.187Z,100424.94
2022-10-01T09:53:47.020Z,100426.88
2022-10-01T09:56:27.238Z,100433.03
2022-10-01T09:58:55.334Z,100439.78
2022-10-01T10:01:37.790Z,100440.19
2022-10-01T10:04:04.731Z,100440.66
2022-10-01T10:06:35.791Z,100433.00
2022-10-01T10:11:43.161Z,100445.56
2022-10-01T10:14:18.119Z,100451.59
2022-10-01T10:16:46.169Z,100458.56
2022-10-01T10:19:24.199Z,100465.81
2022-10-01T10:21:53.039Z,100479.88
2022-10-01T10:24:26.441Z,100473.50
2022-10-01T10:26:55.774Z,100480.81
2022-10-01T10:38:01.573Z,100505.19
2022-10-01T10:40:34.435Z,100501.94
2022-10-01T10:45:43.911Z,100503.22
2022-10-01T10:51:05.203Z,100523.44
2022-10-01T10:53:47.382Z,100519.97
2022-10-01T10:56:31.041Z,100545.53
2022-10-01T10:59:08.236Z,100529.88
2022-10-01T11:01:37.762Z,100531.13
2022-10-01T11:04:38.839Z,100544.03
2022-10-01T11:07:05.834Z,100542.88
2022-10-01T11:09:58.657Z,100554.31
2022-10-01T11:12:52.251Z,100561.81
2022-10-01T11:16:07.381Z,100564.81
2022-10-01T11:18:45.488Z,100567.06
2022-10-01T11:21:46.763Z,100578.13
2022-10-01T11:27:15.748Z,100586.34
2022-10-01T11:33:12.239Z,100593.41
2022-10-01T11:35:55.756Z,100591.97
2022-10-01T11:38:43.252Z,100610.69
2022-10-01T11:41:21.644Z,100603.72
2022-10-01T11:46:53.554Z,100611.53
2022-10-01T11:49:33.655Z,100620.25
2022-10-01T11:55:35.002Z,100626.44
2022-10-01T11:58:43.040Z,100637.50
2022-10-01T12:07:38.484Z,100640.44
2022-10-01T12:10:21.147Z,100643.56
2022-10-01T12:12:54.360Z,100648.09
2022-10-01T12:15:29.064Z,100648.59
2022-10-01T12:18:01.591Z,100634.59
2022-10-01T12:20:34.630Z,100646.38
2022-10-01T12:23:03.238Z,100658.22
2022-10-01T12:25:43.096Z,100655.91
2022-10-01T12:28:24.072Z,100649.94
2022-10-01T12:31:06.344Z,100649.84
2022-10-01T12:36:42.818Z,100665.47
2022-10-01T12:39:14.442Z,100656.69
2022-10-01T12:41:50.833Z,100666.13
2022-10-01T12:44:26.186Z,100673.03
2022-10-01T12:47:03.809Z,100673.91
2022-10-01T12:49:41.430Z,100677.22
2022-10-01T12:52:33.765Z,100683.97
2022-10-01T12:55:35.339Z,100685.16
2022-10-01T12:58:01.776Z,100681.22
2022-10-01T13:00:35.799Z,100684.56
2022-10-01T13:06:21.820Z,100705.81
2022-10-01T13:12:48.514Z,100706.47
2022-10-01T13:15:21.561Z,100701.84
2022-10-01T13:17:57.464Z,100711.44
2022-10-01T13:20:27.907Z,100711.53
2022-10-01T13:23:12.619Z,100704.19
2022-10-01T13:28:37.387Z,100729.72
2022-10-01T13:31:15.518Z,100735.75
2022-10-01T13:33:43.172Z,100742.28
2022-10-01T13:36:10.784Z,100741.50
2022-10-01T13:38:46.946Z,100730.97
2022-10-01T13:41:29.903Z,100738.38
2022-10-01T13:47:08.229Z,100761.16
2022-10-01T13:49:36.494Z,100766.53
2022-10-01T13:52:04.772Z,100768.09
2022-10-01T13:54:37.555Z,100765.59
2022-10-01T13:57:21.042Z,100765.16
2022-10-01T14:00:17.748Z,100777.81
2022-10-01T14:03:04.805Z,100782.13
2022-10-01T14:05:36.726Z,100777.47
2022-10-01T14:08:14.639Z,100789.91
2022-10-01T14:16:47.869Z,100793.56
2022-10-01T14:19:19.973Z,100810.69
2022-10-01T14:22:13.205Z,100825.41
2022-10-01T14:24:49.106Z,100814.50
2022-10-01T14:27:29.097Z,100821.59
2022-10-01T14:30:15.928Z,100820.97
2022-10-01T14:33:07.696Z,100825.22
2022-10-01T14:35:45.375Z,100824.41
2022-10-01T14:38:13.871Z,100830.09
2022-10-01T14:40:43.919Z,100828.50
2022-10-01T14:43:17.328Z,100810.47
2022-10-01T14:45:57.517Z,100822.38
2022-10-01T14:48:25.816Z,100820.91
2022-10-01T14:50:55.438Z,100816.69
2022-10-01T14:56:14.487Z,100828.66
2022-10-01T14:58:52.578Z,100829.53
2022-10-01T15:01:31.468Z,100837.75
2022-10-01T15:03:58.196Z,100842.16
2022-10-01T15:06:33.701Z,100844.56
2022-10-01T15:09:12.040Z,100859.06
2022-10-01T15:14:22.826Z,100848.94
2022-10-01T15:16:49.706Z,100855.38
2022-10-01T15:19:19.583Z,100861.16
2022-10-01T15:21:57.407Z,100860.44
2022-10-01T15:27:25.980Z,100852.91
2022-10-01T15:30:02.135Z,100859.06
2022-10-01T15:32:29.127Z,100867.34
2022-10-01T15:37:40.425Z,100878.69
2022-10-01T15:40:20.908Z,100880.78
2022-10-01T15:43:07.606Z,100872.94
2022-10-01T15:45:35.279Z,100888.25
2022-10-01T15:50:43.421Z,100887.34
2022-10-01T15:53:19.633Z,100883.09
2022-10-01T15:55:50.320Z,100889.59
2022-10-01T15:58:22.523Z,100879.78
2022-10-01T16:01:09.367Z,100883.91
2022-10-01T16:03:42.339Z,100879.34
2022-10-01T16:06:18.475Z,100881.81
2022-10-01T16:09:06.610Z,100902.25
2022-10-01T16:12:02.385Z,100897.09
2022-10-01T16:14:36.805Z,100897.72
2022-10-01T16:17:23.012Z,100902.84
2022-10-01T16:20:00.717Z,100907.97
2022-10-01T16:22:37.502Z,100920.06
2022-10-01T16:25:19.539Z,100924.44
2022-10-01T16:28:05.961Z,100917.81
2022-10-01T16:30:33.885Z,100923.16
2022-10-01T16:33:04.441Z,100923.97
2022-10-01T16:35:33.076Z,100931.63
2022-10-01T16:37:59.616Z,100944.59
2022-10-01T16:40:29.938Z,100940.78
2022-10-01T16:42:57.923Z,100940.38
2022-10-01T16:45:27.820Z,100952.88
2022-10-01T16:47:58.397Z,100948.22
2022-10-01T16:50:25.728Z,100945.66
2022-10-01T16:52:53.601Z,100940.56
2022-10-01T16:55:30.581Z,100947.59
2022-10-01T16:57:57.198Z,100968.53
2022-10-01T17:00:25.945Z,100961.53
2022-10-01T17:02:53.698Z,100961.34
2022-10-01T17:05:20.177Z,100965.97
2022-10-01T17:07:46.885Z,100962.16
2022-10-01T17:10:14.120Z,100973.56
2022-10-01T17:12:41.240Z,100980.16
2022-10-01T17:15:08.378Z,100993.66
2022-10-01T17:17:35.407Z,101006.13
2022-10-01T17:20:01.896Z,101002.69
2022-10-01T17:22:28.450Z,101020.50
2022-10-01T17:24:55.013Z,101021.19
2022-10-01T17:27:21.739Z,101032.63
2022-10-01T17:29:48.274Z,101033.19
2022-10-01T17:32:18.662Z,101046.41
2022-10-01T17:34:45.950Z,101030.59
2022-10-01T17:37:12.962Z,101043.47
2022-10-01T17:39:41.030Z,101052.25
2022-10-01T17:42:07.635Z,101053.97
2022-10-01T17:44:34.151Z,101050.59
2022-10-01T17:47:00.652Z,101062.56
2022-10-01T17:49:27.226Z,101057.66
2022-10-01T17:51:53.796Z,101064.81
2022-10-01T17:54:21.181Z,101072.63
2022-10-01T17:56:48.761Z,101078.31
2022-10-01T17:59:15.367Z,101085.66
2022-10-01T18:01:41.932Z,101083.25
2022-10-01T18:04:12.297Z,101095.50
2022-10-01T18:06:39.737Z,101097.31
2022-10-01T18:09:07.000Z,101102.00
2022-10-01T18:11:33.766Z,101100.19
2022-10-01T18:14:00.309Z,101103.69
2022-10-01T18:16:27.502Z,101098.75
2022-10-01T18:21:44.888Z,101111.31
2022-10-01T18:24:11.367Z,101109.78
2022-10-01T18:26:38.428Z,101116.28
2022-10-01T18:29:05.293Z,101118.66
2022-10-01T18:31:38.056Z,101123.97
2022-10-01T18:34:15.821Z,101127.16
2022-10-01T18:36:51.737Z,101134.22
2022-10-01T18:39:40.845Z,101136.94
2022-10-01T18:42:17.273Z,101135.13
2022-10-01T18:44:43.732Z,101139.19
2022-10-01T18:47:31.935Z,101140.06
2022-10-01T18:50:04.620Z,101137.31
2022-10-01T18:53:08.890Z,101135.84
2022-10-01T18:56:00.114Z,101133.13
2022-10-01T18:58:46.846Z,101127.47
2022-10-01T19:01:13.377Z,101133.19
2022-10-01T19:04:07.934Z,101140.00
2022-10-01T19:06:41.198Z,101129.75
2022-10-01T19:09:11.165Z,101143.72
2022-10-01T19:11:50.354Z,101143.91
2022-10-01T19:14:37.598Z,101154.09
2022-10-01T19:17:25.656Z,101152.53
2022-10-01T19:20:15.975Z,101152.38
2022-10-01T19:23:13.164Z,101157.34
2022-10-01T19:25:55.666Z,101163.25
2022-10-01T19:28:28.378Z,101169.69
2022-10-01T19:31:04.234Z,101171.06
2022-10-01T19:33:33.686Z,101180.97
2022-10-01T19:36:00.491Z,101179.88
2022-10-01T19:38:35.538Z,101182.72
2022-10-01T19:41:12.003Z,101190.28
2022-10-01T19:43:49.594Z,101186.88
2022-10-01T19:46:23.401Z,101188.31
2022-10-01T19:48:57.134Z,101202.41
2022-10-01T19:51:28.582Z,101202.13
2022-10-01T19:54:01.060Z,101203.38
2022-10-01T19:56:33.572Z,101207.34
2022-10-01T19:59:26.833Z,101211.75
2022-10-01T20:02:02.631Z,101217.44
2022-10-01T20:04:48.029Z,101218.31
2022-10-01T20:07:22.285Z,101221.59
2022-10-01T20:10:05.709Z,101228.97
2022-10-01T20:12:42.195Z,101225.41
2022-10-01T20:15:35.537Z,101224.53
2022-10-01T20:18:18.725Z,101239.84
2022-10-01T20:20:48.305Z,101239.00
2022-10-01T20:23:36.841Z,101250.81
2022-10-01T20:26:11.991Z,101259.03
2022-10-01T20:28:52.444Z,101260.25
2022-10-01T20:31:43.313Z,101257.88
2022-10-01T20:34:18.622Z,101259.41
2022-10-01T20:36:54.094Z,101259.59
2022-10-01T20:39:32.686Z,101280.16
2022-10-01T20:41:59.473Z,101274.03
2022-10-01T20:44:35.512Z,101271.50
2022-10-01T20:47:12.055Z,101269.13
2022-10-01T20:50:09.856Z,101275.09
2022-10-01T20:53:03.760Z,101261.88
2022-10-01T20:55:40.647Z,101264.69
2022-10-01T20:58:13.083Z,101268.16
2022-10-01T21:00:42.022Z,101269.50
2022-10-01T21:03:23.349Z,101268.84
2022-10-01T21:06:06.329Z,101257.31
2022-10-01T21:08:41.653Z,101271.00
2022-10-01T21:11:14.937Z,101267.31
2022-10-01T21:13:55.793Z,101265.13
2022-10-01T21:16:34.892Z,101260.59
2022-10-01T21:19:34.611Z,101265.31
2022-10-01T21:22:32.356Z,101278.63
2022-10-01T21:25:19.042Z,101279.09
2022-10-01T21:28:05.159Z,101274.47
2022-10-01T21:31:07.479Z,101318.81
2022-10-01T21:33:38.769Z,101355.66
2022-10-01T21:36:23.012Z,101370.59
2022-10-01T21:39:20.868Z,101323.53
2022-10-01T21:42:03.492Z,101345.47
2022-10-01T21:44:38.939Z,101343.63
2022-10-01T21:47:40.820Z,101348.38
2022-10-01T21:50:48.903Z,101358.09
2022-10-01T21:53:40.341Z,101339.50
2022-10-01T21:56:39.293Z,101358.94
2022-10-01T21:59:28.651Z,101360.31
2022-10-01T22:02:04.527Z,101349.75
2022-10-01T22:04:50.566Z,101334.41
2022-10-01T22:07:19.969Z,101330.13
2022-10-01T22:10:10.914Z,101329.78
2022-10-01T22:12:40.521Z,101331.50
2022-10-01T22:15:21.158Z,101334.03
2022-10-01T22:17:49.954Z,101338.13
2022-10-01T22:20:18.149Z,101337.59
2022-10-01T22:22:45.766Z,101347.66
2022-10-01T22:25:13.785Z,101343.56
2022-10-01T22:27:59.367Z,101346.97
2022-10-01T22:30:26.351Z,101356.03
2022-10-01T22:33:05.657Z,101353.16
2022-10-01T22:35:43.250Z,101359.13
2022-10-01T22:38:23.648Z,101360.47
2022-10-01T22:40:55.565Z,101360.28
2022-10-01T22:43:22.099Z,101374.97
2022-10-01T22:46:00.999Z,101374.78
2022-10-01T22:48:39.377Z,101372.34
2022-10-01T22:51:56.608Z,101367.50
2022-10-01T22:54:52.269Z,101371.22
2022-10-01T22:57:37.954Z,101370.78
2022-10-01T23:00:04.298Z,101378.63
2022-10-01T23:02:41.012Z,101376.19
2022-10-01T23:05:11.057Z,101387.44
2022-10-01T23:07:37.463Z,101384.50
2022-10-01T23:10:10.805Z,101382.94
2022-10-01T23:12:49.269Z,101379.94
2022-10-01T23:15:24.564Z,101385.53
2022-10-01T23:17:50.996Z,101393.38
2022-10-01T23:20:20.490Z,101392.84
2022-10-01T23:22:46.942Z,101394.53
2022-10-01T23:25:23.852Z,101396.09
2022-10-01T23:27:53.539Z,101398.47
2022-10-01T23:30:20.384Z,101400.84
2022-10-01T23:33:05.669Z,101398.31
2022-10-01T23:35:50.881Z,101394.81
2022-10-01T23:38:32.578Z,101395.97
2022-10-01T23:41:03.962Z,101391.19
2022-10-01T23:43:39.038Z,101393.59
2022-10-01T23:46:12.224Z,101396.84
2022-10-01T23:48:48.453Z,101396.66
2022-10-01T23:51:32.952Z,101400.41
2022-10-01T23:54:05.400Z,101408.75
2022-10-01T23:57:03.595Z,101412.16
2022-10-01T23:59:36.161Z,101412.44
